Time;durP1;ratioP1;P1;durP2;ratioP2;P2;SDS_P1;SDS_P2;PMS_P1;PMS_P2;Temp;Humidity;BMP_temperature;BMP_pressure;BME280_temperature;BME280_humidity;BME280_pressure;Samples;Min_cycle;Max_cycle;Signal;HPM_P1;HPM_P2
2022/01/24 00:00:13;;;;;;;22.20;15.23;;;6.40;99.90;;;;;;5050523;28;20494;-92
2022/01/24 00:02:40;;;;;;;20.38;15.10;;;6.40;99.90;;;;;;5029964;28;20132;-92
2022/01/24 00:05:07;;;;;;;20.65;14.93;;;6.30;99.90;;;;;;5014990;28;20042;-93
2022/01/24 00:07:32;;;;;;;20.92;14.27;;;6.30;99.90;;;;;;5031248;28;20519;-92
2022/01/24 00:10:02;;;;;;;20.52;14.10;;;6.30;99.90;;;;;;5031154;28;20051;-92
2022/01/24 00:17:47;;;;;;;21.58;14.68;;;6.20;99.90;;;;;;5030881;28;20084;-93
2022/01/24 00:28:09;;;;;;;19.25;12.68;;;6.20;99.90;;;;;;5030889;28;20049;-92
2022/01/24 00:30:34;;;;;;;19.50;13.07;;;6.20;99.90;;;;;;5030464;28;20041;-91
2022/01/24 00:33:00;;;;;;;18.38;12.77;;;6.20;99.90;;;;;;5030087;28;20132;-92
2022/01/24 00:35:26;;;;;;;18.90;13.68;;;6.10;99.90;;;;;;5013481;28;20049;-92
2022/01/24 00:37:52;;;;;;;18.13;12.23;;;6.20;99.90;;;;;;5029969;28;20091;-91
2022/01/24 00:40:17;;;;;;;19.27;12.68;;;6.20;99.90;;;;;;5029987;28;20524;-92
2022/01/24 00:42:56;;;;;;;17.70;12.10;;;6.20;99.90;;;;;;5013630;28;20037;-92
2022/01/24 00:45:48;;;;;;;20.08;13.13;;;6.20;99.90;;;;;;5013983;28;20176;-91
2022/01/24 00:56:17;;;;;;;16.75;11.98;;;6.10;99.90;;;;;;5029868;28;20426;-92
2022/01/24 00:58:42;;;;;;;18.17;12.43;;;6.10;99.90;;;;;;5013760;28;20037;-91
2022/01/24 01:01:08;;;;;;;18.65;12.38;;;6.10;99.90;;;;;;5014342;28;20034;-92
2022/01/24 01:03:34;;;;;;;19.65;13.13;;;6.10;99.90;;;;;;5012874;28;20083;-92
2022/01/24 01:06:05;;;;;;;20.70;12.55;;;6.10;99.90;;;;;;5030489;28;20052;-93
2022/01/24 01:19:29;;;;;;;17.85;11.90;;;6.00;99.90;;;;;;5030767;28;20458;-92
2022/01/24 01:21:54;;;;;;;16.95;11.73;;;6.00;99.90;;;;;;5029800;28;20049;-92
2022/01/24 01:24:21;;;;;;;18.50;13.07;;;6.00;99.90;;;;;;5013873;28;20068;-91
2022/01/24 01:26:53;;;;;;;17.63;13.07;;;6.00;99.90;;;;;;5029993;28;20088;-92
2022/01/24 01:29:24;;;;;;;17.50;12.15;;;6.00;99.90;;;;;;5029930;28;20106;-91
2022/01/24 01:32:14;;;;;;;16.95;10.90;;;6.00;99.90;;;;;;5013182;28;20103;-92
2022/01/24 01:35:06;;;;;;;18.90;12.05;;;6.00;99.90;;;;;;5029956;28;20068;-91
2022/01/24 01:40:41;;;;;;;16.83;11.45;;;6.00;99.90;;;;;;5029990;28;20046;-91
2022/01/24 01:56:42;;;;;;;16.42;11.13;;;6.00;99.90;;;;;;5033292;28;20049;-92
2022/01/24 01:59:08;;;;;;;14.93;9.90;;;6.00;99.90;;;;;;5033519;28;20041;-92
2022/01/24 02:01:33;;;;;;;15.95;10.02;;;6.00;99.90;;;;;;5016296;28;20473;-91
2022/01/24 02:04:02;;;;;;;17.15;11.35;;;6.00;99.90;;;;;;5032736;28;20041;-91
2022/01/24 02:06:29;;;;;;;16.10;10.82;;;6.00;99.90;;;;;;5016363;28;20037;-92
2022/01/24 02:09:04;;;;;;;15.05;10.02;;;6.00;99.90;;;;;;5034079;28;20580;-94
2022/01/24 02:11:30;;;;;;;16.35;10.43;;;6.00;99.90;;;;;;5016576;28;20052;-93
2022/01/24 02:13:59;;;;;;;15.20;10.10;;;6.00;99.90;;;;;;5032904;28;20265;-92
2022/01/24 02:24:37;;;;;;;14.95;9.65;;;6.00;99.90;;;;;;5033177;28;20045;-92
2022/01/24 02:27:04;;;;;;;14.32;10.02;;;6.00;99.90;;;;;;5016466;28;20037;-93
2022/01/24 02:29:52;;;;;;;14.20;9.68;;;6.00;99.90;;;;;;5016442;28;20044;-92
2022/01/24 02:32:18;;;;;;;15.90;10.32;;;6.00;99.90;;;;;;5016141;28;20077;-92
2022/01/24 02:34:47;;;;;;;16.52;10.18;;;6.00;99.90;;;;;;5016432;28;20602;-92
2022/01/24 02:37:15;;;;;;;17.20;10.18;;;6.00;99.90;;;;;;5032884;28;20128;-91
2022/01/24 02:53:00;;;;;;;16.98;10.82;;;5.90;99.90;;;;;;5032097;28;20518;-92
2022/01/24 02:55:26;;;;;;;17.17;11.18;;;5.90;99.90;;;;;;5032924;28;20041;-92
2022/01/24 02:57:52;;;;;;;16.13;10.68;;;5.90;99.90;;;;;;5015827;28;20701;-92
2022/01/24 03:00:17;;;;;;;16.15;10.60;;;6.00;99.90;;;;;;5015131;28;20044;-91
2022/01/24 03:02:43;;;;;;;15.63;10.68;;;6.00;99.90;;;;;;5035433;28;20193;-92
2022/01/24 03:05:08;;;;;;;15.65;10.50;;;6.00;99.90;;;;;;5035439;28;20040;-92
2022/01/24 03:07:34;;;;;;;16.80;11.55;;;6.00;99.90;;;;;;5051848;28;20075;-92
2022/01/24 03:10:08;;;;;;;16.35;11.00;;;6.00;99.90;;;;;;5051951;28;20047;-92
2022/01/24 03:12:42;;;;;;;17.15;11.35;;;6.00;99.90;;;;;;5033912;28;20041;-90
2022/01/24 03:15:09;;;;;;;16.42;12.07;;;5.90;99.90;;;;;;5051443;28;20119;-92
2022/01/24 03:17:34;;;;;;;24.33;16.58;;;6.00;99.90;;;;;;5035254;28;20079;-93
2022/01/24 03:20:00;;;;;;;20.65;15.02;;;6.00;99.90;;;;;;5035572;28;20064;-92
2022/01/24 03:22:25;;;;;;;23.15;16.13;;;6.00;99.90;;;;;;5035178;28;20624;-92
2022/01/24 03:24:51;;;;;;;24.13;16.80;;;6.00;99.90;;;;;;5052086;28;20037;-93
2022/01/24 03:27:17;;;;;;;22.83;15.40;;;6.00;99.90;;;;;;5051452;28;20571;-93
2022/01/24 03:29:42;;;;;;;21.83;16.48;;;6.00;99.90;;;;;;5035041;28;20044;-92
2022/01/24 03:32:08;;;;;;;24.75;17.45;;;6.00;99.90;;;;;;5051366;28;20106;-92
2022/01/24 03:34:34;;;;;;;24.02;17.13;;;5.90;99.90;;;;;;5051209;28;20032;-91
2022/01/24 03:37:00;;;;;;;26.83;17.58;;;5.90;99.90;;;;;;5051422;28;20069;-93
2022/01/24 03:39:25;;;;;;;25.77;16.13;;;5.90;99.90;;;;;;5034917;28;20044;-92
2022/01/24 03:41:51;;;;;;;26.42;17.05;;;5.90;99.90;;;;;;5034635;28;20064;-92
2022/01/24 03:44:17;;;;;;;25.48;18.45;;;5.90;99.90;;;;;;5034893;28;20037;-92
2022/01/24 03:47:11;;;;;;;29.80;20.98;;;5.90;99.90;;;;;;5051439;28;20056;-93
2022/01/24 03:49:47;;;;;;;30.55;21.02;;;5.90;99.90;;;;;;5050700;28;20049;-91
2022/01/24 03:52:18;;;;;;;31.25;21.40;;;5.90;99.90;;;;;;5050256;28;20053;-91
2022/01/24 03:54:45;;;;;;;28.70;20.13;;;5.90;99.90;;;;;;5050755;28;20483;-90
2022/01/24 03:57:13;;;;;;;29.25;19.75;;;5.90;99.90;;;;;;5050357;28;20098;-90
2022/01/24 03:59:39;;;;;;;33.83;20.38;;;5.90;99.90;;;;;;5050567;28;20072;-91
2022/01/24 04:02:05;;;;;;;30.63;20.02;;;5.90;99.90;;;;;;5050594;28;20082;-91
2022/01/24 04:04:31;;;;;;;31.10;21.13;;;5.90;99.90;;;;;;5050094;28;20123;-92
2022/01/24 04:06:56;;;;;;;33.85;23.60;;;5.90;99.90;;;;;;5033993;28;20045;-92
2022/01/24 04:09:22;;;;;;;32.80;22.02;;;6.00;99.90;;;;;;5050227;28;20045;-91
2022/01/24 04:11:52;;;;;;;35.15;23.98;;;6.00;99.90;;;;;;5032946;28;20041;-91
2022/01/24 04:22:32;;;;;;;35.58;23.17;;;6.00;99.90;;;;;;5050263;28;20070;-92
2022/01/24 04:25:00;;;;;;;36.08;24.13;;;6.00;99.90;;;;;;5050125;28;20525;-92
2022/01/24 04:27:27;;;;;;;37.08;25.90;;;6.00;99.90;;;;;;5033761;28;20072;-92
2022/01/24 04:29:53;;;;;;;37.83;25.45;;;6.00;99.90;;;;;;5033243;28;20045;-92
2022/01/24 04:32:18;;;;;;;36.53;25.05;;;6.00;99.90;;;;;;5049920;28;20048;-92
2022/01/24 04:34:44;;;;;;;36.90;24.23;;;6.00;99.90;;;;;;5050289;28;20049;-92
2022/01/24 04:37:10;;;;;;;37.45;24.33;;;6.00;99.90;;;;;;5050407;28;20045;-91
2022/01/24 04:39:35;;;;;;;37.55;26.05;;;6.00;99.90;;;;;;5033606;28;20154;-92
2022/01/24 04:42:09;;;;;;;38.50;26.20;;;6.00;99.90;;;;;;5033873;28;20037;-92
2022/01/24 04:44:54;;;;;;;40.00;26.33;;;6.00;99.90;;;;;;5033999;28;20079;-91
2022/01/24 04:47:47;;;;;;;41.45;27.30;;;6.00;99.90;;;;;;5050105;28;20567;-91
2022/01/24 04:53:05;;;;;;;33.28;22.90;;;6.00;99.90;;;;;;5049345;28;19917;-90
2022/01/24 04:55:31;;;;;;;39.30;26.35;;;6.00;99.90;;;;;;5050020;28;20041;-90
2022/01/24 04:57:56;;;;;;;40.67;27.20;;;6.00;99.90;;;;;;5049804;28;20037;-90
2022/01/24 05:00:22;;;;;;;41.58;27.83;;;6.00;99.90;;;;;;5049578;28;20171;-90
2022/01/24 05:02:47;;;;;;;38.88;27.25;;;6.00;99.90;;;;;;5048709;28;20080;-91
2022/01/24 05:05:18;;;;;;;41.08;27.88;;;6.00;99.90;;;;;;5033386;28;20041;-91
2022/01/24 05:07:43;;;;;;;41.20;27.60;;;6.00;99.90;;;;;;5050115;28;20120;-91
2022/01/24 05:10:22;;;;;;;42.80;28.23;;;6.00;99.90;;;;;;5049455;28;20183;-91
2022/01/24 05:23:37;;;;;;;44.70;30.00;;;6.00;99.90;;;;;;5031905;28;20057;-90
2022/01/24 05:26:06;;;;;;;42.90;29.50;;;6.10;99.90;;;;;;5017053;28;20055;-91
2022/01/24 05:28:33;;;;;;;43.10;30.63;;;6.10;99.90;;;;;;5033514;28;20040;-91
2022/01/24 05:30:59;;;;;;;43.85;30.85;;;6.10;99.90;;;;;;5033597;28;20037;-91
2022/01/24 05:33:26;;;;;;;44.55;30.48;;;6.10;99.90;;;;;;5032939;28;20132;-91
2022/01/24 05:35:52;;;;;;;43.70;31.25;;;6.10;99.90;;;;;;5033431;28;20037;-91
2022/01/24 05:38:17;;;;;;;44.63;31.75;;;6.10;99.90;;;;;;5016920;28;20044;-90
2022/01/24 05:40:44;;;;;;;45.70;31.15;;;6.10;99.90;;;;;;5016611;28;20543;-90
2022/01/24 05:43:10;;;;;;;41.78;29.33;;;6.10;99.90;;;;;;5016278;28;20077;-90
2022/01/24 05:45:36;;;;;;;40.95;28.48;;;6.10;99.90;;;;;;5033207;28;20076;-90
2022/01/24 05:48:02;;;;;;;44.90;30.52;;;6.10;99.90;;;;;;5032793;28;20454;-90
2022/01/24 05:50:28;;;;;;;50.08;33.95;;;6.10;99.90;;;;;;5033056;28;20045;-91
2022/01/24 05:52:54;;;;;;;47.35;32.28;;;6.10;99.90;;;;;;5032547;28;20042;-90
2022/01/24 05:55:19;;;;;;;44.72;31.27;;;6.10;99.90;;;;;;5032989;28;20041;-90
2022/01/24 05:57:45;;;;;;;47.03;32.53;;;6.10;99.90;;;;;;5032864;28;20124;-90
2022/01/24 06:00:13;;;;;;;46.78;31.00;;;6.10;99.90;;;;;;5032827;28;20041;-90
2022/01/24 06:02:39;;;;;;;50.60;33.70;;;6.10;99.90;;;;;;5031380;28;20131;-90
2022/01/24 06:05:06;;;;;;;53.65;36.75;;;6.20;99.90;;;;;;5030664;28;20033;-90
2022/01/24 06:07:31;;;;;;;50.53;33.83;;;6.10;99.90;;;;;;5031824;28;20046;-90
2022/01/24 06:09:57;;;;;;;48.88;33.03;;;6.20;99.90;;;;;;5030156;28;20044;-90
2022/01/24 06:12:23;;;;;;;48.60;31.50;;;6.20;99.90;;;;;;5049734;28;20469;-90
2022/01/24 06:14:49;;;;;;;51.70;35.00;;;6.10;99.90;;;;;;5051814;28;20407;-91
2022/01/24 06:17:16;;;;;;;52.95;35.25;;;6.20;99.90;;;;;;5051903;28;20497;-90
2022/01/24 06:19:42;;;;;;;51.47;33.85;;;6.20;99.90;;;;;;5051734;28;20446;-91
2022/01/24 06:22:08;;;;;;;52.13;34.67;;;6.20;99.90;;;;;;5034970;28;20494;-90
2022/01/24 06:24:33;;;;;;;54.03;34.13;;;6.20;99.90;;;;;;5034864;28;20086;-90
2022/01/24 06:26:59;;;;;;;49.17;33.03;;;6.20;99.90;;;;;;5051251;28;20548;-90
2022/01/24 06:29:24;;;;;;;51.13;34.40;;;6.20;99.90;;;;;;5035434;28;20480;-90
2022/01/24 06:31:50;;;;;;;49.00;33.78;;;6.10;99.90;;;;;;5051691;28;20495;-90
2022/01/24 06:34:15;;;;;;;52.40;33.10;;;6.20;99.90;;;;;;5050957;28;20450;-90
2022/01/24 06:36:41;;;;;;;52.00;33.65;;;6.20;99.90;;;;;;5051734;28;20434;-91
2022/01/24 06:39:07;;;;;;;55.58;35.95;;;6.20;99.90;;;;;;5051693;28;20040;-91
2022/01/24 06:41:35;;;;;;;53.08;34.83;;;6.20;99.90;;;;;;5034056;28;20037;-91
2022/01/24 06:44:02;;;;;;;56.88;36.25;;;6.20;99.90;;;;;;5051284;28;20047;-90
2022/01/24 06:46:28;;;;;;;50.88;33.53;;;6.20;99.90;;;;;;5051313;28;20033;-90
2022/01/24 06:48:54;;;;;;;52.58;34.72;;;6.20;99.90;;;;;;5034716;28;20087;-90
2022/01/24 06:51:22;;;;;;;52.40;34.90;;;6.20;99.90;;;;;;5051571;28;20044;-90
2022/01/24 06:53:48;;;;;;;53.15;35.15;;;6.20;99.90;;;;;;5034293;28;20040;-90
2022/01/24 06:56:14;;;;;;;54.50;35.42;;;6.20;99.90;;;;;;5035118;28;20037;-90
2022/01/24 06:58:40;;;;;;;51.25;34.35;;;6.20;99.90;;;;;;5047676;28;20049;-90
2022/01/24 07:01:06;;;;;;;52.58;34.45;;;6.20;99.90;;;;;;5050751;28;20498;-90
2022/01/24 07:03:32;;;;;;;56.72;35.40;;;6.20;99.90;;;;;;5050501;28;20033;-90
2022/01/24 07:05:58;;;;;;;52.42;33.38;;;6.20;99.90;;;;;;5050809;28;20041;-90
2022/01/24 07:08:24;;;;;;;53.50;34.92;;;6.20;99.90;;;;;;5034771;28;20045;-90
2022/01/24 07:10:50;;;;;;;48.97;31.73;;;6.20;99.90;;;;;;5048249;28;20414;-90
2022/01/24 07:13:16;;;;;;;51.83;34.38;;;6.20;99.90;;;;;;5034002;28;20040;-90
2022/01/24 07:15:52;;;;;;;52.95;34.58;;;6.20;99.90;;;;;;5034549;28;20120;-90
2022/01/24 07:20:52;;;;;;;55.95;36.95;;;6.20;99.90;;;;;;5051193;28;20037;-90
2022/01/24 07:23:17;;;;;;;57.58;36.55;;;6.20;99.90;;;;;;5050979;28;20508;-91
2022/01/24 07:25:44;;;;;;;59.60;38.65;;;6.20;99.90;;;;;;5041707;28;20034;-90
2022/01/24 07:28:10;;;;;;;55.67;35.90;;;6.20;99.90;;;;;;5013553;28;20126;-90
2022/01/24 07:30:35;;;;;;;56.95;38.20;;;6.20;99.90;;;;;;5014340;28;20450;-90
2022/01/24 07:33:01;;;;;;;55.85;35.97;;;6.20;99.90;;;;;;5030688;28;20045;-90
2022/01/24 07:35:26;;;;;;;55.28;35.40;;;6.20;99.90;;;;;;5030739;28;20095;-90
2022/01/24 07:37:52;;;;;;;50.67;34.13;;;6.20;99.90;;;;;;5014402;28;20046;-90
2022/01/24 07:40:18;;;;;;;50.25;33.45;;;6.20;99.90;;;;;;5030601;28;20407;-90
2022/01/24 07:45:19;;;;;;;53.33;35.28;;;6.20;99.90;;;;;;5030359;28;20038;-90
2022/01/24 07:47:47;;;;;;;55.67;36.47;;;6.20;99.90;;;;;;5029507;28;20091;-90
2022/01/24 07:50:14;;;;;;;57.35;37.88;;;6.20;99.90;;;;;;5013723;28;20037;-90
2022/01/24 07:52:39;;;;;;;53.03;36.25;;;6.20;99.90;;;;;;5013745;28;20045;-90
2022/01/24 07:55:05;;;;;;;51.63;34.03;;;6.20;99.90;;;;;;5030419;28;20075;-90
2022/01/24 07:57:31;;;;;;;55.97;36.25;;;6.20;99.90;;;;;;5030901;28;20041;-90
2022/01/24 07:59:56;;;;;;;53.38;34.30;;;6.20;99.90;;;;;;5030404;28;20046;-90
2022/01/24 08:02:22;;;;;;;53.65;35.38;;;6.20;99.90;;;;;;5012581;28;20084;-90
2022/01/24 08:04:47;;;;;;;52.83;34.53;;;6.20;99.90;;;;;;5030350;28;20072;-90
2022/01/24 08:07:13;;;;;;;52.13;34.38;;;6.20;99.90;;;;;;5013564;28;20056;-90
2022/01/24 08:09:38;;;;;;;54.08;34.58;;;6.20;99.90;;;;;;5013813;28;20041;-90
2022/01/24 08:12:05;;;;;;;48.67;31.40;;;6.20;99.90;;;;;;5023537;28;20578;-90
2022/01/24 08:14:31;;;;;;;51.33;33.22;;;6.20;99.90;;;;;;5044376;28;20437;-90
2022/01/24 08:16:57;;;;;;;50.47;32.92;;;6.20;99.90;;;;;;5050527;28;20522;-90
2022/01/24 08:19:22;;;;;;;55.30;35.88;;;6.20;99.90;;;;;;5050586;28;20505;-90
2022/01/24 08:21:48;;;;;;;51.88;36.05;;;6.20;99.90;;;;;;5050182;28;20517;-90
2022/01/24 08:24:14;;;;;;;54.03;36.17;;;6.20;99.90;;;;;;5050315;28;20044;-90
2022/01/24 08:26:39;;;;;;;58.58;36.40;;;6.30;99.90;;;;;;5050185;28;20102;-90
2022/01/24 08:29:06;;;;;;;53.10;33.08;;;6.30;99.90;;;;;;5032776;28;20043;-90
2022/01/24 08:31:32;;;;;;;59.47;36.85;;;6.30;99.90;;;;;;5049843;28;20032;-90
2022/01/24 08:33:58;;;;;;;51.58;34.92;;;6.30;99.90;;;;;;5049826;28;20044;-91
2022/01/24 08:36:23;;;;;;;53.33;35.33;;;6.30;99.90;;;;;;5033049;28;20045;-90
2022/01/24 08:38:51;;;;;;;50.00;35.80;;;6.30;99.90;;;;;;5033354;28;20045;-90
2022/01/24 08:41:27;;;;;;;46.78;35.53;;;6.30;99.90;;;;;;5011273;28;20042;-90
2022/01/24 08:44:00;;;;;;;52.33;35.08;;;6.30;99.90;;;;;;5029793;28;20077;-90
2022/01/24 08:46:26;;;;;;;49.70;36.05;;;6.30;99.90;;;;;;5029912;28;20041;-90
2022/01/24 08:48:51;;;;;;;47.60;34.30;;;6.40;99.90;;;;;;5032694;28;20124;-90
2022/01/24 08:51:17;;;;;;;47.40;34.72;;;6.40;99.90;;;;;;5030645;28;20099;-90
2022/01/24 08:53:43;;;;;;;45.13;35.03;;;6.40;99.90;;;;;;5029326;28;20055;-90
2022/01/24 08:56:11;;;;;;;46.80;33.28;;;6.40;99.90;;;;;;5013320;28;20038;-90
2022/01/24 08:58:38;;;;;;;47.95;33.83;;;6.40;99.90;;;;;;5032796;28;20129;-91
2022/01/24 09:01:04;;;;;;;44.53;33.40;;;6.30;99.90;;;;;;5033944;28;20037;-91
2022/01/24 09:03:35;;;;;;;44.75;32.15;;;6.40;99.90;;;;;;5043851;28;20069;-90
2022/01/24 09:06:01;;;;;;;42.58;32.63;;;6.40;99.90;;;;;;5037182;28;20045;-90
2022/01/24 09:08:27;;;;;;;42.63;31.88;;;6.40;99.90;;;;;;5036771;28;20513;-90
2022/01/24 09:10:53;;;;;;;42.33;33.78;;;6.40;99.90;;;;;;5053288;28;20128;-91
2022/01/24 09:13:19;;;;;;;43.08;32.00;;;6.40;99.90;;;;;;5053420;28;20422;-91
2022/01/24 09:15:45;;;;;;;42.42;32.40;;;6.40;99.90;;;;;;5037079;28;20041;-90
2022/01/24 09:18:11;;;;;;;44.20;32.15;;;6.40;99.90;;;;;;5053653;28;20102;-90
2022/01/24 09:20:41;;;;;;;41.00;31.45;;;6.40;99.90;;;;;;5053370;28;20041;-91
2022/01/24 09:23:08;;;;;;;39.38;29.95;;;6.40;99.90;;;;;;5053437;28;20394;-90
2022/01/24 09:25:35;;;;;;;39.75;30.00;;;6.40;99.90;;;;;;5037481;28;20120;-92
2022/01/24 09:28:00;;;;;;;40.53;32.22;;;6.40;99.90;;;;;;5036796;28;20049;-92
2022/01/24 09:30:26;;;;;;;39.13;31.83;;;6.40;99.90;;;;;;5053391;28;20059;-92
2022/01/24 09:32:52;;;;;;;39.38;31.92;;;6.40;99.90;;;;;;5035782;28;20119;-92
2022/01/24 09:35:20;;;;;;;41.78;32.67;;;6.40;99.90;;;;;;5050994;28;20037;-91
2022/01/24 09:37:47;;;;;;;39.15;31.58;;;6.40;99.90;;;;;;5036072;28;20045;-92
2022/01/24 09:40:15;;;;;;;41.63;32.05;;;6.30;99.90;;;;;;5053003;28;20044;-92
2022/01/24 09:42:43;;;;;;;41.60;31.48;;;6.40;99.90;;;;;;5052656;28;20503;-91
2022/01/24 09:45:12;;;;;;;41.67;33.13;;;6.40;99.90;;;;;;5053121;28;20041;-91
2022/01/24 09:47:38;;;;;;;42.58;32.88;;;6.40;99.90;;;;;;5052466;28;20052;-92
2022/01/24 09:50:06;;;;;;;43.33;33.70;;;6.40;99.90;;;;;;5052590;28;20059;-92
2022/01/24 09:52:32;;;;;;;40.92;31.88;;;6.40;99.90;;;;;;5036274;28;20127;-91
2022/01/24 09:54:57;;;;;;;41.33;31.67;;;6.40;99.90;;;;;;5036162;28;20127;-92
2022/01/24 09:57:23;;;;;;;40.67;32.50;;;6.40;99.90;;;;;;5036709;28;20498;-93
2022/01/24 09:59:49;;;;;;;39.70;31.33;;;6.40;99.90;;;;;;5053093;28;20062;-92
2022/01/24 10:02:15;;;;;;;40.53;31.55;;;6.30;99.90;;;;;;5052837;28;20040;-93
2022/01/24 10:04:40;;;;;;;41.38;32.05;;;6.30;99.90;;;;;;5037031;28;20155;-93
2022/01/24 10:07:12;;;;;;;35.33;25.50;;;6.30;99.90;;;;;;5037287;28;20108;-92
2022/01/24 10:09:49;;;;;;;43.25;33.78;;;6.30;99.90;;;;;;5035608;28;20128;-92
2022/01/24 10:17:36;;;;;;;46.47;35.00;;;6.20;99.90;;;;;;5053026;28;20108;-93
2022/01/24 10:20:19;;;;;;;43.22;33.45;;;6.20;99.90;;;;;;5036584;28;20460;-93
2022/01/24 10:23:28;;;;;;;42.17;32.92;;;6.20;99.90;;;;;;5036316;28;20033;-93
2022/01/24 10:26:02;;;;;;;45.70;33.05;;;6.20;99.90;;;;;;5020094;28;20048;-93
2022/01/24 10:28:27;;;;;;;45.67;34.70;;;6.20;99.90;;;;;;5036835;28;20041;-93
2022/01/24 10:31:09;;;;;;;44.03;35.72;;;6.20;99.90;;;;;;5036358;28;20148;-92
2022/01/24 10:33:53;;;;;;;41.08;32.05;;;6.20;99.90;;;;;;5035717;28;20045;-92
2022/01/24 10:36:50;;;;;;;46.67;34.13;;;6.20;99.90;;;;;;5052547;28;20049;-92
2022/01/24 10:42:32;;;;;;;44.17;31.63;;;6.20;99.90;;;;;;4975747;28;20073;-93
2022/01/24 10:45:12;;;;;;;43.75;33.67;;;6.20;99.90;;;;;;4991866;28;20041;-92
2022/01/24 10:47:44;;;;;;;41.13;32.60;;;6.10;99.90;;;;;;4976231;28;20500;-93
2022/01/24 10:50:17;;;;;;;40.65;30.40;;;6.10;99.90;;;;;;4975720;28;20093;-93
2022/01/24 10:52:43;;;;;;;;;;;6.10;99.90;;;;;;4975662;28;20172;-93
2022/01/24 10:55:21;;;;;;;40.17;30.30;;;6.10;99.90;;;;;;4959677;28;20024;-93
2022/01/24 10:57:50;;;;;;;37.45;28.90;;;6.10;99.90;;;;;;4975427;28;20050;-92
2022/01/24 11:00:24;;;;;;;37.88;27.95;;;6.10;99.90;;;;;;4958965;28;20129;-93
2022/01/24 11:02:52;;;;;;;42.03;31.63;;;6.10;99.90;;;;;;4974412;28;20062;-93
2022/01/24 11:05:39;;;;;;;35.78;27.70;;;6.00;99.90;;;;;;4959864;28;20133;-92
2022/01/24 11:08:11;;;;;;;39.67;30.45;;;6.00;99.90;;;;;;4957112;28;20042;-92
2022/01/24 11:10:42;;;;;;;40.53;30.38;;;6.00;99.90;;;;;;4958390;28;20462;-93
2022/01/24 11:13:09;;;;;;;42.25;30.63;;;6.10;99.90;;;;;;4958837;28;20042;-92
2022/01/24 11:15:39;;;;;;;39.95;31.02;;;6.10;99.90;;;;;;4997929;28;20143;-92
2022/01/24 11:18:05;;;;;;;44.40;33.42;;;6.00;99.90;;;;;;5051589;28;20095;-92
2022/01/24 11:20:34;;;;;;;41.38;33.08;;;6.00;99.90;;;;;;5034334;28;20115;-92
2022/01/24 11:23:05;;;;;;;43.28;34.03;;;6.00;99.90;;;;;;5035249;28;20044;-93
2022/01/24 11:25:37;;;;;;;44.42;33.05;;;6.00;99.90;;;;;;5051252;28;20033;-92
2022/01/24 11:28:04;;;;;;;41.58;30.70;;;6.00;99.90;;;;;;5051648;28;20048;-92
2022/01/24 11:30:42;;;;;;;41.63;30.95;;;6.00;99.90;;;;;;5051148;28;20064;-93
2022/01/24 11:33:32;;;;;;;41.33;30.83;;;6.00;99.90;;;;;;5050424;28;20037;-93
2022/01/24 11:36:01;;;;;;;33.78;26.85;;;5.90;99.90;;;;;;5034556;28;20500;-92
2022/01/24 11:38:37;;;;;;;25.50;20.95;;;5.90;99.90;;;;;;5051289;28;20095;-92
2022/01/24 11:41:11;;;;;;;24.52;19.75;;;5.80;99.90;;;;;;5034365;28;20403;-91
2022/01/24 11:43:40;;;;;;;25.85;21.33;;;5.80;99.90;;;;;;5050446;28;20048;-92
2022/01/24 11:46:48;;;;;;;27.20;22.35;;;5.80;99.90;;;;;;5034651;28;20047;-92
2022/01/24 11:49:17;;;;;;;29.75;23.35;;;5.80;99.90;;;;;;5034319;28;20522;-93
2022/01/24 11:51:46;;;;;;;31.73;25.33;;;5.80;99.90;;;;;;5034133;28;20075;-93
2022/01/24 11:54:55;;;;;;;30.58;25.23;;;5.80;99.90;;;;;;5034378;28;20072;-91
2022/01/24 11:57:22;;;;;;;31.38;24.92;;;5.90;99.90;;;;;;5033710;28;20042;-92
2022/01/24 11:59:49;;;;;;;30.27;23.67;;;5.90;99.90;;;;;;5050943;28;20045;-92
2022/01/24 12:02:23;;;;;;;28.33;22.65;;;5.90;99.90;;;;;;5032166;28;20051;-93
2022/01/24 12:04:58;;;;;;;27.40;19.98;;;5.90;99.90;;;;;;5034607;28;20071;-93
2022/01/24 12:07:32;;;;;;;28.10;21.70;;;5.90;99.90;;;;;;5051270;28;20044;-92
2022/01/24 12:13:35;;;;;;;25.73;19.40;;;5.90;99.90;;;;;;5050781;28;20045;-92
2022/01/24 12:16:07;;;;;;;23.17;17.10;;;5.90;99.90;;;;;;5044980;28;20345;-92
2022/01/24 12:18:33;;;;;;;23.77;18.27;;;5.80;99.90;;;;;;5034576;28;20033;-93
2022/01/24 12:21:03;;;;;;;23.88;18.90;;;5.80;99.90;;;;;;5031317;28;20037;-92
2022/01/24 12:23:37;;;;;;;23.92;19.52;;;5.80;99.90;;;;;;5013561;28;20131;-92
2022/01/24 12:26:12;;;;;;;24.13;19.67;;;5.80;99.90;;;;;;5013758;28;20037;-92
2022/01/24 12:28:46;;;;;;;26.50;19.80;;;5.80;99.90;;;;;;5030897;28;20052;-93
2022/01/24 12:31:26;;;;;;;27.42;21.55;;;5.80;99.90;;;;;;5018691;28;20076;-92
2022/01/24 12:33:55;;;;;;;28.95;22.88;;;5.80;99.90;;;;;;5039652;28;20041;-92
2022/01/24 12:36:39;;;;;;;27.30;22.63;;;5.80;99.90;;;;;;5039138;28;20045;-92
2022/01/24 12:39:10;;;;;;;29.27;23.92;;;5.80;99.90;;;;;;5040989;28;20041;-92
2022/01/24 12:41:41;;;;;;;25.35;21.27;;;5.80;99.90;;;;;;5023391;28;20033;-91
2022/01/24 12:46:34;;;;;;;29.00;24.88;;;5.80;99.90;;;;;;5030078;28;20136;-92
2022/01/24 12:49:02;;;;;;;29.17;25.02;;;5.80;99.90;;;;;;5030803;28;20056;-92
2022/01/24 12:51:29;;;;;;;28.35;24.85;;;5.80;99.90;;;;;;5030185;28;20049;-92
2022/01/24 12:53:56;;;;;;;28.73;25.40;;;5.80;99.90;;;;;;5013521;28;20045;-91
2022/01/24 12:56:30;;;;;;;29.70;26.58;;;5.80;99.90;;;;;;5030242;28;20045;-92
2022/01/24 12:58:56;;;;;;;31.42;24.95;;;5.80;99.90;;;;;;5013703;28;20056;-92
2022/01/24 13:01:24;;;;;;;31.80;25.35;;;5.80;99.90;;;;;;5030384;28;20041;-92
2022/01/24 13:04:12;;;;;;;29.88;25.77;;;5.80;99.90;;;;;;5013162;28;20038;-92
2022/01/24 13:06:44;;;;;;;32.45;26.42;;;5.80;99.90;;;;;;5013554;28;20373;-91
2022/01/24 13:09:19;;;;;;;31.05;25.95;;;5.80;99.90;;;;;;5030427;28;20045;-91
2022/01/24 13:11:57;;;;;;;31.83;27.17;;;5.80;99.90;;;;;;5029734;28;20042;-92
2022/01/24 13:14:29;;;;;;;30.30;26.08;;;5.80;99.90;;;;;;5012588;28;20446;-92
2022/01/24 13:25:28;;;;;;;30.55;25.88;;;5.70;99.90;;;;;;5033035;28;20044;-91
2022/01/24 13:27:58;;;;;;;26.67;21.67;;;5.70;99.90;;;;;;5021478;28;20052;-91
2022/01/24 13:30:27;;;;;;;27.75;21.60;;;5.70;99.90;;;;;;5037858;28;20037;-91
2022/01/24 13:32:56;;;;;;;30.10;24.83;;;5.70;99.90;;;;;;5037846;28;20045;-91
2022/01/24 13:35:30;;;;;;;30.45;25.30;;;5.70;99.90;;;;;;5023453;28;20041;-91
2022/01/24 13:37:59;;;;;;;26.60;22.58;;;5.70;99.90;;;;;;5020619;28;20088;-91
2022/01/24 13:40:56;;;;;;;26.33;22.35;;;5.70;99.90;;;;;;5029421;28;20065;-91
2022/01/24 13:43:33;;;;;;;22.80;18.60;;;5.70;99.90;;;;;;5030016;28;20045;-91
2022/01/24 13:46:00;;;;;;;24.95;20.42;;;5.70;99.90;;;;;;5033466;28;20064;-91
2022/01/24 13:48:26;;;;;;;27.92;22.67;;;5.60;99.90;;;;;;5032618;28;20037;-91
2022/01/24 13:50:57;;;;;;;30.23;25.25;;;5.60;99.90;;;;;;5016812;28;20044;-91
2022/01/24 13:53:44;;;;;;;26.13;21.48;;;5.60;99.90;;;;;;5032835;28;20045;-91
2022/01/24 13:56:21;;;;;;;28.25;22.10;;;5.60;99.90;;;;;;5016297;28;20474;-91
2022/01/24 13:59:06;;;;;;;28.00;23.00;;;5.60;99.90;;;;;;5033051;28;20057;-91
2022/01/24 14:01:32;;;;;;;25.92;21.10;;;5.60;99.90;;;;;;5016170;28;20037;-91
2022/01/24 14:04:01;;;;;;;27.50;22.00;;;5.60;99.90;;;;;;5033555;28;20116;-93
2022/01/24 14:06:31;;;;;;;23.83;19.65;;;5.60;99.90;;;;;;5033246;28;20042;-92
2022/01/24 14:09:11;;;;;;;26.80;22.45;;;5.60;99.90;;;;;;5016483;28;20487;-91
2022/01/24 14:11:47;;;;;;;28.65;20.73;;;5.60;99.90;;;;;;5032909;28;20049;-91
2022/01/24 14:14:17;;;;;;;29.60;24.40;;;5.60;99.90;;;;;;5016798;28;20045;-91
2022/01/24 14:19:12;;;;;;;30.30;24.77;;;5.70;99.90;;;;;;5033089;28;20140;-92
2022/01/24 14:21:38;;;;;;;34.40;27.25;;;5.70;99.90;;;;;;5015712;28;20640;-91
2022/01/24 14:24:07;;;;;;;29.23;24.52;;;5.60;99.90;;;;;;5032739;28;20041;-91
2022/01/24 14:26:34;;;;;;;32.88;25.35;;;5.70;99.90;;;;;;5032817;28;20045;-91
2022/01/24 14:29:09;;;;;;;31.30;23.75;;;5.70;99.90;;;;;;5015433;28;20124;-91
2022/01/24 14:31:34;;;;;;;29.80;23.85;;;5.70;99.90;;;;;;5015867;28;20045;-91
2022/01/24 14:34:02;;;;;;;32.90;26.25;;;5.70;99.90;;;;;;5031577;28;20068;-90
2022/01/24 14:36:28;;;;;;;33.33;26.27;;;5.70;99.90;;;;;;5038405;28;20037;-91
2022/01/24 14:39:06;;;;;;;32.40;25.65;;;5.70;99.90;;;;;;5040223;28;20049;-90
2022/01/24 14:41:39;;;;;;;32.35;26.48;;;5.70;99.90;;;;;;5027481;28;20096;-90
2022/01/24 14:46:54;;;;;;;32.85;26.70;;;5.70;99.90;;;;;;5042221;28;20106;-91
2022/01/24 14:49:24;;;;;;;32.05;25.67;;;5.70;99.90;;;;;;5020918;28;20045;-91
2022/01/24 14:51:52;;;;;;;34.67;29.60;;;5.70;99.90;;;;;;5031475;28;20495;-90
2022/01/24 14:54:23;;;;;;;33.95;27.08;;;5.70;99.90;;;;;;5031343;28;20049;-91